Time;durP1;ratioP1;P1;durP2;ratioP2;P2;SDS_P1;SDS_P2;PMS_P1;PMS_P2;Temp;Humidity;BMP_temperature;BMP_pressure;BME280_temperature;BME280_humidity;BME280_pressure;Samples;Min_cycle;Max_cycle;Signal;HPM_P1;HPM_P2
2023/02/21 02:13:56;;;;;;;4.43;3.43;;;9.70;99.90;;;;;;5090280;27;20454;-64
2023/02/21 02:16:44;;;;;;;7.57;4.50;;;9.80;99.90;;;;;;5095057;27;20463;-63
2023/02/21 02:19:23;;;;;;;4.60;3.90;;;9.90;99.90;;;;;;5089734;27;20422;-64
2023/02/21 02:22:31;;;;;;;5.70;3.97;;;9.80;99.90;;;;;;5101782;27;20423;-64
2023/02/21 02:25:25;;;;;;;5.90;4.00;;;9.90;99.90;;;;;;5082049;27;20426;-64
2023/02/21 02:28:09;;;;;;;4.90;4.20;;;9.90;99.90;;;;;;5089478;27;20933;-64
2023/02/21 02:30:40;;;;;;;6.13;4.23;;;9.90;99.90;;;;;;5085374;27;20515;-64
2023/02/21 02:33:33;;;;;;;5.83;4.40;;;9.90;99.90;;;;;;5092106;27;20802;-63
2023/02/21 02:36:11;;;;;;;6.67;4.07;;;9.80;99.90;;;;;;5087895;27;20447;-64
2023/02/21 02:39:00;;;;;;;7.93;4.13;;;9.90;99.90;;;;;;5087049;28;20430;-64
2023/02/21 02:41:46;;;;;;;7.00;4.50;;;9.90;99.90;;;;;;5093225;27;20503;-64
2023/02/21 02:44:23;;;;;;;5.10;4.07;;;9.80;99.90;;;;;;5088820;28;20440;-64
2023/02/21 02:46:50;;;;;;;4.87;3.80;;;9.70;99.90;;;;;;5092261;27;21031;-64
2023/02/21 02:49:21;;;;;;;5.40;4.10;;;9.70;99.90;;;;;;5093113;28;20435;-64
2023/02/21 02:51:48;;;;;;;6.50;4.33;;;9.60;99.90;;;;;;5092864;27;20431;-63
2023/02/21 02:54:13;;;;;;;6.80;4.10;;;9.60;99.90;;;;;;5088847;28;20522;-64
2023/02/21 02:56:39;;;;;;;5.30;3.80;;;9.50;99.90;;;;;;5073404;28;20458;-63
2023/02/21 02:59:28;;;;;;;4.73;4.30;;;9.60;99.90;;;;;;5088187;28;20182;-63
2023/02/21 03:02:02;;;;;;;6.73;4.47;;;9.60;99.90;;;;;;5085850;28;20194;-64
2023/02/21 03:04:40;;;;;;;6.10;4.53;;;9.60;99.90;;;;;;5069836;28;20813;-64
2023/02/21 03:07:26;;;;;;;10.67;4.40;;;9.50;99.90;;;;;;5085251;28;20476;-64
2023/02/21 03:10:10;;;;;;;7.23;4.43;;;9.50;99.90;;;;;;5091812;28;20895;-64
2023/02/21 03:12:47;;;;;;;6.40;4.47;;;9.50;99.90;;;;;;5088045;28;20607;-64
2023/02/21 03:15:39;;;;;;;8.43;3.80;;;9.40;99.90;;;;;;5088104;28;20434;-64
2023/02/21 03:18:21;;;;;;;5.67;4.30;;;9.40;99.90;;;;;;5090761;28;20432;-64
2023/02/21 03:20:53;;;;;;;6.87;4.10;;;9.30;99.90;;;;;;5072582;28;20443;-64
2023/02/21 03:23:21;;;;;;;7.60;4.80;;;9.10;99.90;;;;;;5076342;28;20526;-64
2023/02/21 03:25:49;;;;;;;4.90;4.37;;;8.90;99.90;;;;;;5093705;28;20463;-65
2023/02/21 03:28:15;;;;;;;7.27;5.20;;;8.80;99.90;;;;;;5088473;28;20485;-64
2023/02/21 03:30:42;;;;;;;6.57;4.00;;;8.80;99.90;;;;;;5092366;28;20457;-64
2023/02/21 03:33:08;;;;;;;7.67;4.90;;;8.90;99.90;;;;;;5087492;28;20787;-64
2023/02/21 03:35:33;;;;;;;5.63;4.43;;;9.00;99.90;;;;;;5076724;28;20553;-65
2023/02/21 03:37:59;;;;;;;8.07;4.77;;;9.00;99.90;;;;;;5085878;28;20185;-64
2023/02/21 03:40:30;;;;;;;5.90;4.83;;;8.90;99.90;;;;;;5094445;28;22183;-64
2023/02/21 03:42:57;;;;;;;6.90;4.83;;;8.80;99.90;;;;;;5092082;27;20206;-64
2023/02/21 03:45:23;;;;;;;9.30;4.83;;;8.90;99.90;;;;;;5095016;28;20448;-64
2023/02/21 03:47:48;;;;;;;7.13;4.60;;;8.80;99.90;;;;;;5088985;27;20550;-65
2023/02/21 03:50:14;;;;;;;5.63;4.70;;;8.90;99.90;;;;;;5090727;27;20184;-64
2023/02/21 03:52:40;;;;;;;5.30;4.17;;;8.90;99.90;;;;;;5097272;27;20186;-64
2023/02/21 03:55:07;;;;;;;6.70;4.97;;;8.90;99.90;;;;;;5095014;27;20567;-64
2023/02/21 03:57:33;;;;;;;7.37;4.10;;;8.90;99.90;;;;;;5091545;27;20201;-64
2023/02/21 03:59:59;;;;;;;4.73;4.13;;;8.80;99.90;;;;;;5093789;27;20427;-64
2023/02/21 04:02:25;;;;;;;8.13;4.93;;;8.80;99.90;;;;;;5081510;28;20454;-64
2023/02/21 04:04:50;;;;;;;7.37;4.23;;;8.90;99.90;;;;;;5092408;27;20178;-64
2023/02/21 04:07:18;;;;;;;5.90;4.23;;;8.90;99.90;;;;;;5092922;27;20212;-64
2023/02/21 04:09:44;;;;;;;6.20;4.70;;;8.90;99.90;;;;;;5095814;28;20186;-64
2023/02/21 04:12:09;;;;;;;6.60;4.17;;;8.90;99.90;;;;;;5092605;27;20902;-64
2023/02/21 04:14:35;;;;;;;6.60;4.10;;;8.90;99.90;;;;;;5094221;28;20166;-64
2023/02/21 04:17:01;;;;;;;7.23;5.20;;;9.00;99.90;;;;;;5090769;27;20230;-64
2023/02/21 04:19:27;;;;;;;6.07;4.77;;;8.90;99.90;;;;;;5096276;28;21249;-64
2023/02/21 04:21:52;;;;;;;8.00;4.73;;;8.90;99.90;;;;;;5094055;27;20206;-64
2023/02/21 04:24:18;;;;;;;5.77;4.80;;;8.90;99.90;;;;;;5090802;27;20229;-64
2023/02/21 04:26:43;;;;;;;4.73;4.03;;;8.90;99.90;;;;;;5095097;27;20657;-64
2023/02/21 04:29:09;;;;;;;6.40;4.40;;;8.80;99.90;;;;;;5095576;27;20193;-65
2023/02/21 04:31:35;;;;;;;8.13;4.60;;;8.80;99.90;;;;;;5096885;27;20179;-63
2023/02/21 04:34:01;;;;;;;5.27;4.37;;;8.80;99.90;;;;;;5092849;27;20438;-63
2023/02/21 04:36:26;;;;;;;8.73;4.43;;;8.80;99.90;;;;;;5090850;28;20209;-63
2023/02/21 04:38:52;;;;;;;10.67;4.87;;;8.80;99.90;;;;;;5091808;28;20570;-63
2023/02/21 04:41:18;;;;;;;6.80;4.37;;;8.80;99.90;;;;;;5091800;28;20209;-63
2023/02/21 04:43:44;;;;;;;7.87;4.30;;;8.70;99.90;;;;;;5091674;28;20960;-63
2023/02/21 04:46:15;;;;;;;7.53;4.97;;;8.70;99.90;;;;;;5086725;27;20473;-63
2023/02/21 04:48:46;;;;;;;6.93;5.20;;;8.70;99.90;;;;;;5095833;27;20185;-63
2023/02/21 04:51:13;;;;;;;5.90;5.10;;;8.70;99.90;;;;;;5092775;28;20945;-63
2023/02/21 04:53:39;;;;;;;7.90;5.20;;;8.70;99.90;;;;;;5084077;28;20993;-63
2023/02/21 04:56:05;;;;;;;8.07;5.23;;;8.80;99.90;;;;;;5094644;28;20455;-64
2023/02/21 04:58:30;;;;;;;6.50;5.27;;;8.60;99.90;;;;;;5093658;27;20193;-63
2023/02/21 05:00:56;;;;;;;6.53;5.13;;;8.60;99.90;;;;;;5091488;27;20419;-63
2023/02/21 05:03:23;;;;;;;9.20;5.50;;;8.50;99.90;;;;;;5083908;28;20186;-63
2023/02/21 05:05:49;;;;;;;8.33;5.57;;;8.40;99.90;;;;;;5095538;27;20210;-63
2023/02/21 05:08:14;;;;;;;10.67;6.43;;;8.40;99.90;;;;;;5091017;27;20422;-63
2023/02/21 05:10:40;;;;;;;6.97;5.27;;;8.40;99.90;;;;;;5092187;27;20432;-63
2023/02/21 05:13:06;;;;;;;10.00;5.90;;;8.20;99.90;;;;;;5096803;27;20183;-63
2023/02/21 05:15:31;;;;;;;8.30;5.70;;;8.20;99.90;;;;;;5091041;28;20541;-64
2023/02/21 05:17:57;;;;;;;12.97;6.07;;;8.20;99.90;;;;;;5094916;27;20205;-64
2023/02/21 05:20:22;;;;;;;11.40;5.30;;;8.20;99.90;;;;;;5090315;27;20185;-64
2023/02/21 05:22:48;;;;;;;7.90;6.07;;;8.30;99.90;;;;;;5091078;27;20201;-63
2023/02/21 05:25:19;;;;;;;12.03;6.10;;;8.30;99.90;;;;;;5091917;27;20188;-64
2023/02/21 05:27:45;;;;;;;9.87;5.57;;;8.20;99.90;;;;;;5095741;28;20475;-63
2023/02/21 05:30:14;;;;;;;8.83;6.57;;;8.10;99.90;;;;;;5085892;28;20915;-64
2023/02/21 05:32:40;;;;;;;8.27;6.57;;;8.10;99.90;;;;;;5081100;28;20997;-64
2023/02/21 05:35:06;;;;;;;12.63;7.10;;;8.10;99.90;;;;;;5095028;27;20572;-64
2023/02/21 05:37:31;;;;;;;8.07;6.10;;;8.20;99.90;;;;;;5086675;28;20202;-64
2023/02/21 05:39:57;;;;;;;11.37;6.20;;;8.20;99.90;;;;;;5090020;28;20444;-64
2023/02/21 05:42:22;;;;;;;8.30;5.40;;;8.30;99.90;;;;;;5089176;28;20242;-65
2023/02/21 05:44:48;;;;;;;11.00;7.13;;;8.20;99.90;;;;;;5095395;27;20219;-64
2023/02/21 05:47:14;;;;;;;9.23;5.97;;;8.30;99.90;;;;;;5086728;27;20217;-64
2023/02/21 05:49:40;;;;;;;8.17;6.20;;;8.30;99.90;;;;;;5091999;27;20581;-64
2023/02/21 05:52:07;;;;;;;11.37;5.97;;;8.30;99.90;;;;;;5096573;27;20531;-65
2023/02/21 05:54:32;;;;;;;7.50;6.13;;;8.30;99.90;;;;;;5089284;27;20499;-64
2023/02/21 05:56:58;;;;;;;10.13;6.43;;;8.30;99.90;;;;;;5082625;28;20465;-64
2023/02/21 05:59:24;;;;;;;7.67;6.00;;;8.30;99.90;;;;;;5084313;28;20618;-64
2023/02/21 06:01:50;;;;;;;9.23;6.10;;;8.30;99.90;;;;;;5079212;28;21137;-64
2023/02/21 06:04:16;;;;;;;10.07;5.90;;;8.30;99.90;;;;;;5086450;27;20190;-64
2023/02/21 06:06:42;;;;;;;8.30;6.20;;;8.10;99.90;;;;;;5093325;27;20221;-64
2023/02/21 06:09:08;;;;;;;10.50;6.60;;;8.10;99.90;;;;;;5075546;27;20448;-64
2023/02/21 06:11:36;;;;;;;11.97;6.97;;;8.10;99.90;;;;;;5069359;28;20243;-63
2023/02/21 06:14:04;;;;;;;10.90;7.20;;;8.00;99.90;;;;;;5073161;28;20780;-64
2023/02/21 06:16:34;;;;;;;7.10;6.00;;;7.90;99.90;;;;;;5084050;28;20495;-64
2023/02/21 06:19:00;;;;;;;8.30;6.10;;;7.90;99.90;;;;;;5091543;27;20950;-63
2023/02/21 06:21:26;;;;;;;7.00;5.83;;;7.80;99.90;;;;;;5087576;28;20460;-64
2023/02/21 06:23:51;;;;;;;11.60;6.30;;;7.90;99.90;;;;;;5089068;28;20185;-64
2023/02/21 06:26:19;;;;;;;8.33;6.07;;;7.90;99.90;;;;;;5092973;27;20733;-64
2023/02/21 06:28:46;;;;;;;7.73;6.30;;;7.90;99.90;;;;;;5092242;28;20182;-64
2023/02/21 06:31:11;;;;;;;10.00;6.23;;;7.80;99.90;;;;;;5091755;28;20530;-63
2023/02/21 06:33:37;;;;;;;12.60;6.13;;;7.80;99.90;;;;;;5091343;28;20783;-63
2023/02/21 06:36:09;;;;;;;13.43;6.43;;;7.80;99.90;;;;;;5086453;27;20310;-66
2023/02/21 06:38:35;;;;;;;10.07;6.47;;;7.80;99.90;;;;;;5085373;27;20558;-65
2023/02/21 06:41:05;;;;;;;8.27;6.10;;;7.70;99.90;;;;;;5090314;28;20435;-65
2023/02/21 06:43:30;;;;;;;8.07;6.10;;;7.80;99.90;;;;;;5084385;28;20275;-64
2023/02/21 06:45:56;;;;;;;7.90;6.10;;;7.80;99.90;;;;;;5085464;28;20521;-64
2023/02/21 06:48:21;;;;;;;15.47;8.53;;;7.80;99.90;;;;;;5090509;28;20186;-65
2023/02/21 06:50:47;;;;;;;8.67;6.77;;;7.90;99.90;;;;;;5087824;28;20639;-65
2023/02/21 06:53:13;;;;;;;9.50;6.53;;;7.90;99.90;;;;;;5091564;27;20178;-64
2023/02/21 06:55:38;;;;;;;13.20;7.10;;;8.00;99.90;;;;;;5085264;28;20184;-64
2023/02/21 06:58:04;;;;;;;14.30;7.07;;;8.10;99.90;;;;;;5087757;28;20904;-64
2023/02/21 07:00:29;;;;;;;9.43;7.00;;;8.10;99.90;;;;;;5084462;28;20183;-65
2023/02/21 07:02:55;;;;;;;10.03;6.53;;;8.00;99.90;;;;;;5079475;28;20266;-66
2023/02/21 07:05:20;;;;;;;10.03;7.13;;;8.00;99.90;;;;;;5086512;28;20216;-64
2023/02/21 07:07:46;;;;;;;9.80;7.70;;;8.00;99.90;;;;;;5085841;27;20686;-64
2023/02/21 07:10:12;;;;;;;10.53;7.33;;;8.10;99.90;;;;;;5086834;28;20181;-64
2023/02/21 07:12:37;;;;;;;10.27;7.07;;;8.00;99.90;;;;;;5080952;28;20205;-65
2023/02/21 07:15:04;;;;;;;12.13;7.20;;;8.10;99.90;;;;;;5083905;28;20174;-65
2023/02/21 07:17:29;;;;;;;9.03;7.17;;;8.00;99.90;;;;;;5082335;28;20262;-65
2023/02/21 07:19:55;;;;;;;10.03;7.63;;;8.10;99.90;;;;;;5088040;28;20420;-65
2023/02/21 07:22:24;;;;;;;11.23;7.80;;;8.10;99.90;;;;;;5085641;28;20612;-64
2023/02/21 07:24:52;;;;;;;9.60;6.70;;;8.10;99.90;;;;;;5084222;28;20186;-64
2023/02/21 07:27:18;;;;;;;16.03;7.57;;;8.10;99.90;;;;;;5087318;28;20475;-65
2023/02/21 07:29:46;;;;;;;8.57;7.17;;;8.10;99.90;;;;;;5095762;28;20846;-64
2023/02/21 07:32:13;;;;;;;12.47;8.23;;;8.00;99.90;;;;;;5091758;28;20435;-63
2023/02/21 07:34:38;;;;;;;12.90;7.63;;;8.00;99.90;;;;;;5087848;28;20855;-64
2023/02/21 07:37:04;;;;;;;13.13;8.20;;;8.10;99.90;;;;;;5084449;28;20473;-63
2023/02/21 07:39:29;;;;;;;12.47;8.10;;;8.20;99.90;;;;;;5088966;28;20185;-63
2023/02/21 07:41:55;;;;;;;9.90;7.23;;;8.10;99.90;;;;;;5083833;28;20246;-64
2023/02/21 07:44:21;;;;;;;10.47;8.33;;;8.20;99.90;;;;;;5083775;28;20220;-63
2023/02/21 07:46:46;;;;;;;9.53;8.17;;;8.20;99.90;;;;;;5088532;28;20585;-63
2023/02/21 07:49:12;;;;;;;13.43;8.53;;;8.20;99.90;;;;;;5086686;28;20479;-63
2023/02/21 07:51:37;;;;;;;13.37;7.83;;;8.30;99.90;;;;;;5084889;28;20810;-63
2023/02/21 07:54:04;;;;;;;14.40;8.30;;;8.30;99.90;;;;;;5070229;28;20212;-64
2023/02/21 07:56:29;;;;;;;10.07;8.97;;;8.20;99.90;;;;;;5084691;28;20290;-64
2023/02/21 07:58:55;;;;;;;12.07;8.10;;;8.30;99.90;;;;;;5083867;28;20538;-63
2023/02/21 08:01:23;;;;;;;11.43;8.50;;;8.30;99.90;;;;;;5066374;28;20223;-63
2023/02/21 08:03:49;;;;;;;10.70;7.93;;;8.30;99.90;;;;;;5081266;28;20183;-63
2023/02/21 08:06:14;;;;;;;13.67;9.67;;;8.20;99.90;;;;;;5084982;28;20848;-63
2023/02/21 08:08:40;;;;;;;13.13;8.20;;;8.20;99.90;;;;;;5083993;28;20781;-63
2023/02/21 08:11:05;;;;;;;13.90;8.53;;;8.20;99.90;;;;;;5085649;28;20268;-64
2023/02/21 08:13:31;;;;;;;18.17;9.70;;;8.30;99.90;;;;;;5083178;28;20187;-63
2023/02/21 08:15:57;;;;;;;10.83;8.67;;;8.30;99.90;;;;;;5085571;28;20212;-63
2023/02/21 08:18:23;;;;;;;17.30;9.33;;;8.30;99.90;;;;;;5084038;28;20655;-63
2023/02/21 08:20:54;;;;;;;11.43;8.70;;;8.30;99.90;;;;;;5088955;28;20197;-63
2023/02/21 08:23:20;;;;;;;13.50;9.30;;;8.30;99.90;;;;;;5088213;28;20486;-64
2023/02/21 08:25:46;;;;;;;16.33;8.60;;;8.40;99.90;;;;;;5092984;28;20432;-64
2023/02/21 08:28:13;;;;;;;10.30;7.77;;;8.40;99.90;;;;;;5085190;27;20439;-63
2023/02/21 08:30:38;;;;;;;12.10;7.47;;;8.50;99.90;;;;;;5091917;27;20441;-63
2023/02/21 08:33:04;;;;;;;16.97;7.77;;;8.40;99.90;;;;;;5091176;27;20435;-64
2023/02/21 08:35:30;;;;;;;11.43;8.00;;;8.40;99.90;;;;;;5092250;27;20246;-64
2023/02/21 08:37:55;;;;;;;9.93;7.60;;;8.50;99.90;;;;;;5086215;27;20243;-64
2023/02/21 08:40:23;;;;;;;9.90;7.93;;;8.60;99.90;;;;;;5089182;28;20481;-64
2023/02/21 08:42:50;;;;;;;8.90;7.90;;;8.70;99.90;;;;;;5093294;27;20787;-64
2023/02/21 08:45:18;;;;;;;8.80;7.53;;;8.80;99.90;;;;;;5091662;27;20526;-64
2023/02/21 08:47:44;;;;;;;14.87;7.47;;;8.80;99.90;;;;;;5090725;28;20471;-64
2023/02/21 08:50:10;;;;;;;7.87;7.03;;;8.80;99.90;;;;;;5087387;28;21094;-64
2023/02/21 08:52:36;;;;;;;12.20;6.87;;;8.80;99.90;;;;;;5086735;28;21021;-64
2023/02/21 08:55:01;;;;;;;9.70;8.10;;;8.90;99.90;;;;;;5089538;27;20484;-64
2023/02/21 08:57:27;;;;;;;11.30;8.07;;;8.90;99.90;;;;;;5084893;28;20287;-63
2023/02/21 08:59:53;;;;;;;11.37;7.70;;;9.00;99.90;;;;;;5088366;27;20175;-64
2023/02/21 09:02:25;;;;;;;9.90;8.07;;;9.00;99.90;;;;;;5079920;28;20269;-64
2023/02/21 09:04:52;;;;;;;11.40;9.37;;;9.10;99.90;;;;;;5066332;28;20478;-64
2023/02/21 09:07:20;;;;;;;9.13;7.20;;;9.10;99.90;;;;;;5087842;27;20622;-64
2023/02/21 09:09:46;;;;;;;11.53;7.37;;;9.10;99.90;;;;;;5087253;28;20416;-64
2023/02/21 09:12:12;;;;;;;11.97;8.97;;;9.20;99.90;;;;;;5090438;28;20442;-64
2023/02/21 09:14:40;;;;;;;8.80;7.10;;;9.20;99.90;;;;;;5086676;27;20200;-64
2023/02/21 09:17:08;;;;;;;10.10;7.60;;;9.40;99.90;;;;;;5086550;28;20829;-64
2023/02/21 09:19:34;;;;;;;12.50;8.10;;;9.50;99.90;;;;;;5088011;27;20505;-64
2023/02/21 09:22:01;;;;;;;9.17;7.47;;;9.60;99.90;;;;;;5072433;28;20458;-64
2023/02/21 09:24:27;;;;;;;9.03;7.83;;;9.60;99.90;;;;;;5089238;28;20510;-64
2023/02/21 09:27:03;;;;;;;11.60;7.27;;;9.70;99.90;;;;;;5093041;27;20979;-63
2023/02/21 09:29:31;;;;;;;11.50;7.50;;;9.80;99.90;;;;;;5088036;28;20341;-63
2023/02/21 09:31:56;;;;;;;10.83;7.97;;;9.90;99.90;;;;;;5089017;27;20852;-64
2023/02/21 09:34:22;;;;;;;11.87;7.40;;;9.90;99.90;;;;;;5085446;28;20420;-64
2023/02/21 09:36:49;;;;;;;14.50;8.07;;;10.10;99.90;;;;;;5089108;28;20210;-64
2023/02/21 09:39:16;;;;;;;8.47;6.80;;;10.20;99.90;;;;;;5092032;27;20246;-64
2023/02/21 09:41:42;;;;;;;11.13;7.57;;;10.20;99.90;;;;;;5090092;27;22004;-64
2023/02/21 09:44:24;;;;;;;10.60;7.13;;;10.30;99.90;;;;;;5087010;28;20430;-63
2023/02/21 09:47:01;;;;;;;7.93;6.90;;;10.40;99.90;;;;;;5086560;28;20858;-63
2023/02/21 09:49:38;;;;;;;12.53;7.20;;;10.40;99.90;;;;;;5088604;28;20472;-64
2023/02/21 09:52:06;;;;;;;14.70;7.47;;;10.50;99.90;;;;;;5089187;27;20488;-63
2023/02/21 09:54:35;;;;;;;8.50;6.63;;;10.60;99.90;;;;;;5085507;27;20436;-64
2023/02/21 09:57:04;;;;;;;10.80;6.70;;;10.60;99.90;;;;;;5087601;28;20527;-64
2023/02/21 09:59:30;;;;;;;7.50;6.13;;;10.70;99.90;;;;;;5086979;27;20428;-64
2023/02/21 10:02:07;;;;;;;8.40;5.90;;;10.80;99.90;;;;;;5085375;28;20485;-64
2023/02/21 10:04:46;;;;;;;11.07;6.23;;;10.90;99.90;;;;;;5088876;28;20444;-63
2023/02/21 10:07:21;;;;;;;11.83;5.87;;;10.90;99.90;;;;;;5084941;28;20595;-64
2023/02/21 10:10:00;;;;;;;10.33;5.77;;;11.00;99.90;;;;;;5081234;28;21004;-64
2023/02/21 10:12:57;;;;;;;7.83;6.37;;;10.90;99.90;;;;;;5087543;27;20431;-64
2023/02/21 10:15:56;;;;;;;10.70;6.37;;;11.10;99.90;;;;;;5079866;28;21335;-64
2023/02/21 10:18:39;;;;;;;8.70;6.30;;;11.20;99.90;;;;;;5080843;28;20435;-64
2023/02/21 10:21:16;;;;;;;7.77;5.83;;;11.30;99.90;;;;;;5081439;27;20461;-64
2023/02/21 10:23:47;;;;;;;7.90;6.23;;;11.40;99.90;;;;;;5085433;28;20443;-63
2023/02/21 10:26:18;;;;;;;9.60;6.40;;;11.50;99.90;;;;;;5088130;28;20482;-64
2023/02/21 10:28:44;;;;;;;11.20;6.93;;;11.60;99.90;;;;;;5084157;28;21889;-64
2023/02/21 10:31:38;;;;;;;9.77;7.00;;;11.70;99.90;;;;;;5089235;27;20994;-64
2023/02/21 10:34:06;;;;;;;7.00;6.13;;;11.70;99.90;;;;;;5082181;27;20194;-64
2023/02/21 10:36:33;;;;;;;11.17;6.67;;;11.80;99.90;;;;;;5082851;28;20551;-63
2023/02/21 10:39:09;;;;;;;9.73;7.30;;;11.80;99.90;;;;;;5091037;27;20741;-63
2023/02/21 10:41:38;;;;;;;9.40;5.63;;;12.00;99.90;;;;;;5085373;28;20446;-64
2023/02/21 10:44:24;;;;;;;9.70;6.43;;;11.90;99.90;;;;;;5072797;28;20521;-63
2023/02/21 10:47:14;;;;;;;8.67;7.60;;;12.10;99.90;;;;;;5090063;27;20843;-62
2023/02/21 10:49:49;;;;;;;10.30;6.80;;;12.20;99.90;;;;;;5069197;28;20436;-63
2023/02/21 10:52:20;;;;;;;7.20;5.87;;;12.20;99.90;;;;;;5090587;28;21156;-63
2023/02/21 10:55:02;;;;;;;9.97;6.20;;;12.30;99.90;;;;;;5072309;28;20428;-63
2023/02/21 10:57:31;;;;;;;8.33;6.83;;;12.40;99.90;;;;;;5089843;27;20451;-63
2023/02/21 10:59:56;;;;;;;14.20;7.10;;;12.50;99.90;;;;;;5089677;27;20468;-63
2023/02/21 11:02:36;;;;;;;8.57;7.03;;;12.60;99.90;;;;;;5090592;27;20899;-62
2023/02/21 11:05:18;;;;;;;9.03;6.27;;;12.60;99.90;;;;;;5080980;27;20691;-63
2023/02/21 11:07:58;;;;;;;9.40;6.33;;;12.70;99.90;;;;;;5083213;27;20498;-62
2023/02/21 11:10:35;;;;;;;6.90;6.00;;;12.80;99.90;;;;;;5067724;28;21023;-63
2023/02/21 11:13:20;;;;;;;9.50;7.10;;;12.80;99.90;;;;;;5064617;28;20488;-63
2023/02/21 11:15:46;;;;;;;11.60;7.60;;;12.80;99.90;;;;;;5081423;28;20427;-63
2023/02/21 11:18:32;;;;;;;9.47;5.70;;;12.90;99.90;;;;;;5084149;28;20441;-63
2023/02/21 11:21:13;;;;;;;14.17;6.40;;;13.00;99.90;;;;;;5083247;28;20451;-64
2023/02/21 11:23:47;;;;;;;12.77;7.87;;;13.10;99.90;;;;;;5088197;28;20440;-63
2023/02/21 11:26:14;;;;;;;9.63;6.30;;;13.20;99.90;;;;;;5087780;28;20474;-64
2023/02/21 11:28:42;;;;;;;12.40;7.20;;;13.30;99.90;;;;;;5083873;28;20444;-64
2023/02/21 11:31:14;;;;;;;10.00;6.67;;;13.30;99.90;;;;;;5086688;28;20454;-64
2023/02/21 11:33:47;;;;;;;10.03;6.87;;;13.30;99.90;;;;;;5086582;28;20446;-64
2023/02/21 11:36:19;;;;;;;8.90;6.63;;;13.40;99.90;;;;;;5089085;28;20931;-63
2023/02/21 11:39:03;;;;;;;9.17;5.83;;;13.40;99.90;;;;;;5085009;28;20439;-64
2023/02/21 11:41:35;;;;;;;11.13;7.60;;;13.50;99.90;;;;;;5085099;28;20440;-63
2023/02/21 11:44:01;;;;;;;8.33;5.87;;;13.50;99.90;;;;;;5085532;28;20770;-63
2023/02/21 11:46:43;;;;;;;7.97;5.90;;;13.60;99.90;;;;;;5084230;28;21045;-63
2023/02/21 11:49:33;;;;;;;12.00;6.00;;;13.60;99.90;;;;;;5085319;28;20201;-64
2023/02/21 11:52:07;;;;;;;9.27;5.50;;;13.70;99.90;;;;;;5083402;28;20624;-64
2023/02/21 11:54:32;;;;;;;7.40;6.10;;;13.70;99.90;;;;;;5085680;28;20438;-64
2023/02/21 11:57:21;;;;;;;8.70;7.13;;;13.80;99.90;;;;;;5085431;28;20463;-65
2023/02/21 12:00:05;;;;;;;6.67;5.30;;;13.90;99.90;;;;;;5085813;28;20195;-64
2023/02/21 12:02:52;;;;;;;9.67;5.40;;;14.00;99.90;;;;;;5088288;27;20933;-64
2023/02/21 12:05:41;;;;;;;7.30;5.20;;;14.10;99.90;;;;;;5089471;28;20447;-64
2023/02/21 12:08:35;;;;;;;9.87;5.97;;;14.30;99.90;;;;;;5090614;28;20464;-64
2023/02/21 12:11:15;;;;;;;8.10;5.20;;;14.50;99.90;;;;;;5090488;27;21085;-65
2023/02/21 12:14:15;;;;;;;10.87;6.00;;;15.30;99.90;;;;;;5086341;28;20562;-65
2023/02/21 12:16:48;;;;;;;6.53;5.00;;;17.90;99.90;;;;;;5082595;28;20797;-65
2023/02/21 12:19:33;;;;;;;8.10;5.77;;;19.80;99.90;;;;;;5064248;28;20454;-64
2023/02/21 12:22:37;;;;;;;7.13;5.33;;;21.10;95.80;;;;;;5079107;28;20465;-64
2023/02/21 12:25:02;;;;;;;5.40;4.90;;;22.80;91.90;;;;;;5088197;28;20582;-63
2023/02/21 12:27:46;;;;;;;5.93;5.30;;;24.40;85.40;;;;;;5091562;27;20482;-64
2023/02/21 12:30:38;;;;;;;6.77;5.00;;;25.20;75.30;;;;;;5088517;27;20212;-65
2023/02/21 12:33:31;;;;;;;5.63;5.03;;;26.30;67.00;;;;;;5089398;27;20450;-64
2023/02/21 12:36:34;;;;;;;7.33;4.80;;;27.30;59.30;;;;;;5091661;27;20560;-65
2023/02/21 12:39:26;;;;;;;12.37;4.77;;;27.60;54.90;;;;;;5080059;28;20474;-64
2023/02/21 12:41:57;;;;;;;5.13;4.13;;;28.60;54.20;;;;;;5088325;28;20450;-64
2023/02/21 12:45:01;;;;;;;9.13;5.43;;;29.60;51.50;;;;;;5085662;27;20443;-63
2023/02/21 12:47:41;;;;;;;6.33;4.50;;;30.00;46.90;;;;;;5055680;28;20556;-65
2023/02/21 12:50:37;;;;;;;8.70;6.03;;;31.00;47.50;;;;;;5086439;27;20450;-64
2023/02/21 12:53:06;;;;;;;7.83;4.87;;;31.70;44.90;;;;;;5089390;28;20535;-65
2023/02/21 12:56:08;;;;;;;5.73;5.20;;;31.90;41.20;;;;;;5091028;27;20547;-64
2023/02/21 12:58:44;;;;;;;7.33;4.57;;;31.50;42.10;;;;;;5078496;27;20478;-64
2023/02/21 13:01:31;;;;;;;5.00;4.50;;;32.30;41.50;;;;;;5086294;27;20512;-64
2023/02/21 13:04:20;;;;;;;4.77;4.20;;;33.20;39.50;;;;;;5083780;28;20485;-64
2023/02/21 13:07:09;;;;;;;5.30;4.80;;;33.80;38.50;;;;;;5090578;27;20451;-64
2023/02/21 13:09:46;;;;;;;4.87;4.47;;;34.60;37.70;;;;;;5090768;27;21315;-64
2023/02/21 13:12:20;;;;;;;5.17;4.20;;;34.60;34.80;;;;;;5092133;28;20570;-63
2023/02/21 13:15:01;;;;;;;4.50;4.10;;;33.40;33.90;;;;;;5086354;27;21042;-64
2023/02/21 13:17:27;;;;;;;4.30;3.90;;;33.90;36.20;;;;;;5091250;28;20466;-64
2023/02/21 13:20:09;;;;;;;4.40;4.00;;;34.50;34.30;;;;;;5088540;27;20463;-64
2023/02/21 13:26:26;;;;;;;5.13;4.37;;;34.00;33.90;;;;;;5087600;27;20438;-64
2023/02/21 13:28:53;;;;;;;5.57;4.13;;;34.00;33.20;;;;;;5088058;28;20998;-64
2023/02/21 13:31:25;;;;;;;5.00;4.60;;;33.40;33.40;;;;;;5090862;27;20427;-65
2023/02/21 13:33:59;;;;;;;5.30;4.20;;;32.50;33.60;;;;;;5068855;28;20425;-65
2023/02/21 13:36:29;;;;;;;4.50;4.10;;;31.40;34.20;;;;;;5091416;28;20546;-65
2023/02/21 13:39:08;;;;;;;5.00;4.40;;;30.40;35.30;;;;;;5081198;27;20428;-66
2023/02/21 13:41:38;;;;;;;4.70;3.87;;;29.80;35.50;;;;;;5085180;28;20424;-65
2023/02/21 13:44:12;;;;;;;3.67;3.37;;;30.00;35.70;;;;;;5084294;28;20435;-65
2023/02/21 13:46:37;;;;;;;4.70;3.90;;;30.50;35.90;;;;;;5085176;28;20449;-65
2023/02/21 13:49:37;;;;;;;4.97;3.93;;;30.70;35.40;;;;;;5086273;28;20964;-65
2023/02/21 13:52:27;;;;;;;11.00;4.07;;;31.10;35.30;;;;;;5069810;28;20268;-65
2023/02/21 13:55:14;;;;;;;4.33;3.80;;;32.00;35.00;;;;;;5080939;28;20517;-64
2023/02/21 13:57:57;;;;;;;10.10;4.90;;;31.30;34.20;;;;;;5086323;27;20578;-64
2023/02/21 14:00:28;;;;;;;4.80;4.00;;;30.60;35.10;;;;;;5086565;27;20457;-65
2023/02/21 14:02:55;;;;;;;5.10;4.60;;;30.00;35.20;;;;;;5069984;28;20972;-64
2023/02/21 14:05:21;;;;;;;7.20;3.90;;;29.60;36.00;;;;;;5084918;27;20473;-64
2023/02/21 14:07:59;;;;;;;4.33;3.77;;;29.30;36.20;;;;;;5088505;27;20469;-65
2023/02/21 14:10:44;;;;;;;5.17;3.77;;;28.80;36.30;;;;;;5088010;27;20431;-65
2023/02/21 14:13:32;;;;;;;4.07;3.73;;;28.10;36.80;;;;;;5085301;27;20959;-65
2023/02/21 14:16:06;;;;;;;4.40;3.87;;;27.60;37.40;;;;;;5081730;28;20473;-66
2023/02/21 14:18:39;;;;;;;3.60;3.27;;;27.20;38.10;;;;;;5068540;28;20975;-66
2023/02/21 14:21:39;;;;;;;4.23;3.60;;;27.00;38.80;;;;;;5083626;28;20553;-66
2023/02/21 14:24:25;;;;;;;7.17;4.00;;;26.80;38.80;;;;;;5073377;28;20467;-65
2023/02/21 14:26:51;;;;;;;4.17;3.70;;;26.30;39.10;;;;;;5085195;27;20446;-65
2023/02/21 14:29:28;;;;;;;4.17;3.20;;;25.70;39.80;;;;;;5082349;27;20444;-65
2023/02/21 14:32:01;;;;;;;3.90;3.20;;;25.40;39.80;;;;;;5080264;27;20545;-66
2023/02/21 14:34:47;;;;;;;3.73;3.30;;;25.20;40.30;;;;;;5085139;28;20467;-65
2023/02/21 14:37:21;;;;;;;3.53;3.23;;;25.00;41.10;;;;;;5082908;27;20458;-66
2023/02/21 14:40:00;;;;;;;5.53;3.30;;;24.70;40.90;;;;;;5087017;28;20557;-66
2023/02/21 14:42:30;;;;;;;4.40;3.60;;;24.20;41.40;;;;;;5086540;28;20427;-65
2023/02/21 14:45:09;;;;;;;6.10;3.80;;;24.00;41.90;;;;;;5081243;28;21196;-65
2023/02/21 14:47:56;;;;;;;4.93;3.40;;;23.60;42.30;;;;;;5082363;28;20455;-66
2023/02/21 14:50:59;;;;;;;6.00;3.50;;;23.40;42.60;;;;;;5064891;28;20450;-66
2023/02/21 14:53:46;;;;;;;8.17;3.43;;;23.30;43.00;;;;;;5089511;27;20812;-64
2023/02/21 14:56:27;;;;;;;6.87;3.67;;;23.10;43.00;;;;;;5079202;27;20689;-65
2023/02/21 14:58:52;;;;;;;4.50;3.50;;;22.80;43.40;;;;;;5083947;27;20446;-65
2023/02/21 15:01:43;;;;;;;5.80;3.60;;;22.60;44.00;;;;;;5086332;27;20450;-65
2023/02/21 15:04:22;;;;;;;4.83;3.33;;;22.40;44.40;;;;;;5083421;28;20706;-67
2023/02/21 15:07:14;;;;;;;5.23;3.40;;;22.30;44.40;;;;;;5087978;28;20497;-66
2023/02/21 15:09:40;;;;;;;4.23;3.60;;;22.10;44.40;;;;;;5084942;28;20455;-67
2023/02/21 15:12:13;;;;;;;3.93;3.53;;;22.00;44.70;;;;;;5070261;28;20435;-65
2023/02/21 15:14:47;;;;;;;4.03;3.63;;;21.70;45.50;;;;;;5082027;28;20170;-65
2023/02/21 15:17:18;;;;;;;4.33;2.90;;;21.40;45.10;;;;;;5052687;28;20464;-66
2023/02/21 15:19:43;;;;;;;3.10;2.70;;;21.20;45.40;;;;;;5085037;28;20433;-65
2023/02/21 15:22:20;;;;;;;3.37;3.00;;;21.20;45.30;;;;;;5073961;28;20825;-66
2023/02/21 15:25:07;;;;;;;3.27;2.97;;;21.20;45.40;;;;;;5082115;28;20189;-68
2023/02/21 15:27:50;;;;;;;3.93;3.43;;;21.20;45.20;;;;;;5086735;28;20766;-68
2023/02/21 15:30:21;;;;;;;5.97;4.27;;;21.20;45.20;;;;;;5084551;28;20976;-67
2023/02/21 15:33:15;;;;;;;6.60;4.53;;;21.10;46.00;;;;;;5083644;28;20733;-66
2023/02/21 15:35:57;;;;;;;3.30;3.00;;;20.90;46.10;;;;;;5085877;28;20465;-66